Sparks, NV (89431)

10:34 PM PDT on June 30, 2015 (GMT -0700)
Rock and York | | Change Station
CLOSE
Current Station
Personal Weather Station
Location: Sparks, NV
Elevation: 4449 ft
Nearby Weather Stations

Elev 4449 ft 39.55 °N, 119.76 °W | Updated 2 minutes ago

Thunderstorm
Thunderstorm
73.6 °F
Feels Like 73.6 °F
N
0.0
Wind Variable Wind from SSE

Today
High -- | Low -- °F
--% Chance of Precip.
Yesterday
High -- | Low -- °F
Precip. -- in
5:34 AM 8:30 PM
Waxing Gibbous, 99% visible
Pressure 29.96 in
Visibility 10.0 miles
Clouds Mostly Cloudy 10000 ft
Mostly Cloudy 18000 ft
Dew Point 73 °F
Humidity 98%
Rainfall 0.23 in
Snow Depth Not available.
UV 0 out of 12
Pollen 5.00 out of 12
Air Quality Not available.
Flu Activity Not available.
METAR KRNO 010355Z 20010G21KT 10SM TS BKN100CB BKN180 26/12 A3014 RMK AO2 PK WND 18029/0332 TSE11B45 SLP143 OCNL LTGICCC SE-S TS SE-S MOV N SH VC SE-SW T02610122

More Conditions Fewer Conditions

Pressure 29.96 in
Visibility 10.0 miles
Clouds Mostly Cloudy 10000 ft
Mostly Cloudy 18000 ft
Dew Point 73 °F
Humidity 98%
Rainfall 0.23 in
Snow Depth Not available.
UV 0 out of 12
Pollen 5.00 out of 12
Air Quality Not available.
Flu Activity Not available.
METAR KRNO 010355Z 20010G21KT 10SM TS BKN100CB BKN180 26/12 A3014 RMK AO2 PK WND 18029/0332 TSE11B45 SLP143 OCNL LTGICCC SE-S TS SE-S MOV N SH VC SE-SW T02610122

More Conditions Fewer Conditions

10-Day Weather Forecast

×

Almanac

Astronomy

Jun. 30, 2015 Rise Set
Actual Time
Civil Twilight
Nautical Twilight
Astronomical Twilight
Moon
Length of Visible Light
Length of Day
Tomorrow will be .
, % of the Moon is Illuminated

Today's Extremes

State Highs State Lows

Community

WunderPhotos

Upload Photos

1,834,149 photos uploaded!

WunderBlogs® & News

Nearby

Air Quality

  Air Quality AQ Index Pollutant
Not available.

Snow Depth

Station Depth Elevation

Earthquake Activity

City Distance Mag. Time & Date
Minimum magnitude displayed is 2.5.

Coastal Water Temperatures

Place Temperature

Stations

Nearby Weather Stations

Station Location Temp. Windchill Dew Point Humidity Wind Precip. Elev Updated Type